Time;durP1;ratioP1;P1;durP2;ratioP2;P2;SDS_P1;SDS_P2;PMS_P1;PMS_P2;Temp;Humidity;BMP_temperature;BMP_pressure;BME280_temperature;BME280_humidity;BME280_pressure;Samples;Min_cycle;Max_cycle;Signal;HPM_P1;HPM_P2
2021/03/13 00:01:17;;;;;;;3.30;0.88;;;5.90;99.90;;;6.61;85.71;99689.94;5015974;28;20658;-71
2021/03/13 00:03:43;;;;;;;3.60;1.05;;;5.90;99.90;;;6.62;85.92;99694.19;5026098;28;20276;-71
2021/03/13 00:06:11;;;;;;;3.33;1.05;;;5.90;99.90;;;6.61;86.24;99693.38;5028370;28;20197;-71
2021/03/13 00:08:39;;;;;;;5.28;1.05;;;5.90;99.90;;;6.58;86.16;99693.47;5032385;28;20192;-71
2021/03/13 00:11:08;;;;;;;5.25;1.13;;;5.90;99.90;;;6.54;86.31;99691.91;5030377;28;20225;-71
2021/03/13 00:13:37;;;;;;;6.05;1.20;;;5.90;99.90;;;6.50;86.50;99689.50;5029341;28;20666;-73
2021/03/13 00:16:05;;;;;;;4.38;1.00;;;5.90;99.90;;;6.53;86.41;99700.59;5026418;28;20289;-73
2021/03/13 00:18:33;;;;;;;3.28;1.00;;;5.80;99.90;;;6.51;86.57;99702.44;5030194;28;20257;-73
2021/03/13 00:21:00;;;;;;;4.40;1.10;;;5.80;99.90;;;6.50;86.71;99715.47;5024866;28;20711;-73
2021/03/13 00:23:26;;;;;;;3.88;1.05;;;5.80;99.90;;;6.46;86.75;99709.56;5016951;28;20547;-72
2021/03/13 00:25:57;;;;;;;5.57;1.40;;;5.80;99.90;;;6.46;87.17;99704.34;5030805;28;20243;-72
2021/03/13 00:28:26;;;;;;;5.15;1.17;;;5.80;99.90;;;6.50;86.98;99711.09;5029277;28;20520;-71
2021/03/13 00:30:53;;;;;;;4.30;1.52;;;5.80;99.90;;;6.55;87.46;99701.38;5021754;28;20519;-71
2021/03/13 00:33:23;;;;;;;4.22;1.30;;;5.80;99.90;;;6.58;87.17;99698.66;5021787;28;20194;-72
2021/03/13 00:35:52;;;;;;;4.00;1.25;;;5.80;99.90;;;6.58;86.93;99696.06;5030335;28;20205;-72
2021/03/13 00:38:20;;;;;;;5.20;1.50;;;5.80;99.90;;;6.59;86.85;99696.94;5026818;28;20193;-72
2021/03/13 00:40:48;;;;;;;7.45;1.70;;;5.80;99.90;;;6.57;87.00;99691.78;5027808;28;20214;-73
2021/03/13 00:43:16;;;;;;;4.90;1.25;;;5.80;99.90;;;6.59;87.07;99707.31;5022923;28;20201;-72
2021/03/13 00:45:44;;;;;;;5.88;1.40;;;5.80;99.90;;;6.58;86.81;99701.25;5029423;28;20219;-71
2021/03/13 00:48:12;;;;;;;4.55;1.35;;;5.80;99.90;;;6.59;87.00;99699.53;5031809;28;20198;-71
2021/03/13 00:50:43;;;;;;;4.90;1.30;;;5.80;99.90;;;6.56;86.90;99697.03;5016140;28;20258;-71
2021/03/13 00:53:10;;;;;;;4.47;1.50;;;5.70;99.90;;;6.54;86.76;99689.31;5021523;28;20252;-72
2021/03/13 00:55:37;;;;;;;6.35;1.40;;;5.70;99.90;;;6.56;86.77;99684.91;5021451;28;20665;-71
2021/03/13 00:58:07;;;;;;;3.30;1.10;;;5.70;99.90;;;6.54;86.85;99681.53;5025722;28;20185;-72
2021/03/13 01:00:36;;;;;;;5.65;1.40;;;5.80;99.90;;;6.55;86.80;99680.59;5028785;28;20190;-71
2021/03/13 01:03:03;;;;;;;4.72;1.58;;;5.80;99.90;;;6.55;87.02;99682.38;5023932;28;20738;-71
2021/03/13 01:05:35;;;;;;;6.95;1.88;;;5.80;99.90;;;6.55;86.94;99682.38;5028142;28;20579;-72
2021/03/13 01:08:05;;;;;;;5.55;1.60;;;5.80;99.90;;;6.55;86.85;99698.78;5025776;28;20197;-71
2021/03/13 01:10:36;;;;;;;4.88;1.20;;;5.80;99.90;;;6.55;86.79;99692.78;5023711;28;20225;-71
2021/03/13 01:13:05;;;;;;;5.93;1.30;;;5.80;99.90;;;6.54;86.96;99691.91;5022482;28;20194;-71
2021/03/13 01:15:32;;;;;;;7.82;1.80;;;5.80;99.90;;;6.54;87.23;99683.25;5021202;28;20210;-72
2021/03/13 01:18:00;;;;;;;6.72;1.60;;;5.80;99.90;;;6.53;86.71;99695.41;5022317;28;20198;-71
2021/03/13 01:20:28;;;;;;;6.85;1.77;;;5.80;99.90;;;6.51;86.90;99691.19;5017765;28;20198;-72
2021/03/13 01:22:56;;;;;;;6.00;1.77;;;5.80;99.90;;;6.50;87.24;99690.31;5024183;28;20220;-72
2021/03/13 01:25:22;;;;;;;5.85;1.40;;;5.80;99.90;;;6.50;87.16;99679.09;5021347;28;20192;-69
2021/03/13 01:27:49;;;;;;;5.00;1.55;;;5.80;99.90;;;6.51;87.12;99680.78;5022985;28;20181;-70
2021/03/13 01:30:19;;;;;;;4.47;1.45;;;5.80;99.90;;;6.51;87.09;99683.38;5020712;28;20205;-69
2021/03/13 01:32:46;;;;;;;4.05;1.33;;;5.80;99.90;;;6.51;87.21;99680.78;5036471;28;20217;-71
2021/03/13 01:35:14;;;;;;;4.45;1.40;;;5.80;99.90;;;6.49;87.31;99670.44;5035121;28;20197;-71
2021/03/13 01:37:41;;;;;;;5.40;2.03;;;5.80;99.90;;;6.50;87.17;99674.72;5021231;28;20228;-72
2021/03/13 01:40:15;;;;;;;6.97;1.77;;;5.80;99.90;;;6.52;86.87;99677.28;5020313;28;20751;-72
2021/03/13 01:42:43;;;;;;;4.28;1.50;;;5.80;99.90;;;6.48;87.15;99668.75;5021869;28;20749;-72
2021/03/13 01:45:17;;;;;;;6.50;1.58;;;5.80;99.90;;;6.44;86.70;99669.78;5020398;28;20197;-72
2021/03/13 01:47:45;;;;;;;5.38;1.70;;;5.80;99.90;;;6.44;86.61;99680.16;5020165;28;20205;-71
2021/03/13 01:50:18;;;;;;;7.93;2.45;;;5.80;99.90;;;6.44;86.88;99680.16;5019631;28;20229;-72
2021/03/13 01:52:48;;;;;;;5.80;1.90;;;5.70;99.90;;;6.43;86.49;99685.44;5020607;28;20229;-71
2021/03/13 01:55:18;;;;;;;8.75;1.85;;;5.70;99.90;;;6.43;86.77;99683.66;5019726;28;20205;-71
2021/03/13 01:57:46;;;;;;;7.85;2.20;;;5.70;99.90;;;6.44;86.95;99669.78;5018977;28;20197;-70
2021/03/13 02:00:17;;;;;;;6.72;1.52;;;5.70;99.90;;;6.45;86.78;99676.66;5020294;28;20201;-70
2021/03/13 02:02:50;;;;;;;7.80;2.20;;;5.70;99.90;;;6.44;86.39;99679.31;5037315;28;20278;-70
2021/03/13 02:05:27;;;;;;;5.85;1.70;;;5.70;99.90;;;6.44;86.72;99674.97;5020619;28;20209;-73
2021/03/13 02:08:05;;;;;;;6.80;1.80;;;5.80;99.90;;;6.48;86.64;99679.13;5022097;28;20194;-71
2021/03/13 02:10:43;;;;;;;6.10;1.88;;;5.80;99.90;;;6.49;86.74;99686.03;5037654;28;20206;-72
2021/03/13 02:13:22;;;;;;;6.25;1.75;;;5.80;99.90;;;6.45;86.53;99678.44;5035238;28;20193;-71
2021/03/13 02:16:01;;;;;;;7.10;1.75;;;5.80;99.90;;;6.40;86.54;99675.16;5021673;28;20208;-71
2021/03/13 02:18:39;;;;;;;6.43;1.90;;;5.70;99.90;;;6.39;86.35;99674.31;5019797;28;20201;-71
2021/03/13 02:21:22;;;;;;;6.43;1.83;;;5.70;99.90;;;6.36;86.26;99677.84;5019758;28;20728;-72
2021/03/13 02:24:25;;;;;;;6.28;1.60;;;5.70;99.90;;;6.37;86.33;99673.50;5021685;28;20239;-70
2021/03/13 02:27:09;;;;;;;4.93;1.60;;;5.60;99.90;;;6.37;86.28;99676.09;5020925;28;20682;-72
2021/03/13 02:29:51;;;;;;;5.10;1.70;;;5.60;99.90;;;6.36;86.13;99682.22;5020479;28;20208;-71
2021/03/13 02:32:43;;;;;;;5.97;1.80;;;5.60;99.90;;;6.38;86.06;99676.97;5021186;28;20212;-71
2021/03/13 02:35:15;;;;;;;6.35;1.90;;;5.60;99.90;;;6.40;85.96;99669.97;5021621;28;20204;-72
2021/03/13 02:37:48;;;;;;;4.22;1.42;;;5.60;99.90;;;6.36;86.12;99680.44;5020285;28;20681;-71
2021/03/13 02:40:24;;;;;;;8.77;2.20;;;5.60;99.90;;;6.36;85.93;99677.03;5035458;28;20669;-72
2021/03/13 02:42:55;;;;;;;7.43;1.83;;;5.60;99.90;;;6.36;86.03;99664.03;5024541;28;20194;-72
2021/03/13 02:45:26;;;;;;;10.02;2.17;;;5.50;99.90;;;6.35;85.93;99667.50;5016017;28;20982;-74
2021/03/13 02:47:55;;;;;;;6.93;2.08;;;5.50;99.90;;;6.34;85.84;99668.44;5036915;28;20201;-70
2021/03/13 02:50:25;;;;;;;8.13;2.28;;;5.50;99.90;;;6.37;85.59;99668.31;5017307;28;20605;-72
2021/03/13 02:53:02;;;;;;;8.70;2.30;;;5.60;99.90;;;6.44;85.65;99668.94;5020463;28;20657;-72
2021/03/13 02:55:30;;;;;;;7.35;2.20;;;5.60;99.90;;;6.52;85.62;99667.72;5019734;28;20662;-71
2021/03/13 02:58:00;;;;;;;9.30;2.30;;;5.70;99.90;;;6.57;85.45;99665.81;5040436;28;20225;-72
2021/03/13 03:00:34;;;;;;;6.38;1.88;;;5.70;99.90;;;6.59;85.27;99669.19;5030927;28;20785;-71
2021/03/13 03:03:04;;;;;;;8.48;2.10;;;5.80;99.90;;;6.61;84.95;99667.38;5031385;28;20251;-72
2021/03/13 03:05:50;;;;;;;7.60;2.20;;;5.80;99.90;;;6.62;84.83;99668.22;5020319;28;20686;-72
2021/03/13 03:08:17;;;;;;;5.85;1.85;;;5.80;99.90;;;6.61;84.44;99667.38;5026696;28;20198;-71
2021/03/13 03:10:45;;;;;;;6.90;2.03;;;5.80;99.90;;;6.65;84.65;99674.16;5024238;28;20229;-71
2021/03/13 03:13:13;;;;;;;7.53;2.03;;;5.80;99.90;;;6.68;84.39;99670.59;5039265;28;20230;-73
2021/03/13 03:15:41;;;;;;;8.57;2.30;;;5.90;99.90;;;6.70;84.33;99676.59;5038960;28;20318;-72
2021/03/13 03:18:13;;;;;;;8.57;2.63;;;5.90;99.90;;;6.68;84.03;99679.22;5022161;28;20193;-73
2021/03/13 03:20:45;;;;;;;6.28;1.92;;;5.90;99.90;;;6.66;83.88;99675.84;5038155;28;20198;-71
2021/03/13 03:23:13;;;;;;;7.10;1.75;;;5.80;99.90;;;6.68;83.97;99674.03;5039418;28;20248;-71
2021/03/13 03:25:41;;;;;;;7.18;1.92;;;5.90;99.90;;;6.67;83.66;99682.72;5022648;28;20197;-71
2021/03/13 03:28:07;;;;;;;6.65;1.95;;;5.80;99.90;;;6.61;83.49;99674.34;5020377;28;20216;-71
2021/03/13 03:30:47;;;;;;;7.22;1.70;;;5.80;99.90;;;6.57;83.74;99671.00;5024233;28;20224;-71
2021/03/13 03:33:14;;;;;;;7.38;1.92;;;5.70;99.90;;;6.53;83.75;99674.59;5027155;28;20225;-72
2021/03/13 03:35:44;;;;;;;6.45;1.80;;;5.70;99.90;;;6.48;83.78;99666.13;5047646;28;20205;-71
2021/03/13 03:38:12;;;;;;;5.45;1.73;;;5.60;99.90;;;6.46;83.58;99665.38;5030676;28;20666;-72
2021/03/13 03:40:42;;;;;;;6.65;1.60;;;5.60;99.90;;;6.48;83.57;99658.34;5020617;28;20221;-71
2021/03/13 03:43:18;;;;;;;3.80;1.40;;;5.60;99.90;;;6.48;83.53;99660.94;5025503;28;20197;-71
2021/03/13 03:45:52;;;;;;;6.05;1.63;;;5.60;99.90;;;6.49;83.68;99657.47;5026270;28;20200;-71
2021/03/13 03:48:22;;;;;;;9.10;1.80;;;5.60;99.90;;;6.49;83.40;99652.25;5030997;28;20197;-71
2021/03/13 03:50:57;;;;;;;5.50;1.52;;;5.60;99.90;;;6.48;83.58;99650.56;5029681;28;20220;-71
2021/03/13 03:53:37;;;;;;;5.38;1.67;;;5.60;99.90;;;6.47;83.38;99635.88;5023243;28;20205;-71
2021/03/13 03:56:05;;;;;;;5.75;1.88;;;5.60;99.90;;;6.46;83.20;99648.94;5030711;28;20681;-70
2021/03/13 03:58:37;;;;;;;5.70;1.80;;;5.50;99.90;;;6.42;83.09;99643.00;5032520;28;20205;-71
2021/03/13 04:01:07;;;;;;;8.65;1.98;;;5.50;99.90;;;6.40;82.89;99649.19;5031231;28;20224;-71
2021/03/13 04:03:37;;;;;;;4.40;1.65;;;5.50;99.90;;;6.38;82.91;99649.22;5022738;28;20185;-71
2021/03/13 04:06:14;;;;;;;6.22;1.50;;;5.40;99.90;;;6.36;83.01;99648.44;5019076;28;20193;-69
2021/03/13 04:08:45;;;;;;;5.30;1.70;;;5.40;99.90;;;6.39;82.94;99656.13;5029975;28;20189;-71
2021/03/13 04:11:13;;;;;;;5.53;1.40;;;5.50;99.90;;;6.42;82.94;99652.53;5031138;28;20221;-71
2021/03/13 04:13:42;;;;;;;3.55;1.40;;;5.50;99.90;;;6.43;82.71;99646.47;5018765;28;20813;-72
2021/03/13 04:16:11;;;;;;;4.80;1.50;;;5.40;99.90;;;6.44;82.54;99642.94;5025854;28;20251;-72
2021/03/13 04:18:38;;;;;;;6.53;1.67;;;5.40;99.90;;;6.45;82.28;99640.28;5033265;28;20199;-71
2021/03/13 04:21:06;;;;;;;8.48;2.50;;;5.40;99.90;;;6.41;82.43;99641.31;5031204;28;20247;-71
2021/03/13 04:23:36;;;;;;;7.63;1.80;;;5.40;99.90;;;6.42;82.13;99637.81;5029350;28;20215;-72
2021/03/13 04:26:04;;;;;;;5.70;1.73;;;5.40;99.90;;;6.39;82.13;99637.94;5030606;28;20727;-71
2021/03/13 04:28:34;;;;;;;4.15;1.50;;;5.40;99.90;;;6.38;82.03;99650.06;5029749;28;20674;-71
2021/03/13 04:31:03;;;;;;;5.13;1.35;;;5.40;99.90;;;6.37;82.36;99647.53;5029942;28;20240;-71
2021/03/13 04:33:33;;;;;;;4.18;1.40;;;5.40;99.90;;;6.38;82.10;99649.22;5032325;28;20305;-72
2021/03/13 04:36:00;;;;;;;5.57;1.67;;;5.40;99.90;;;6.39;81.96;99648.31;5032317;28;20189;-72
2021/03/13 04:38:30;;;;;;;4.65;1.48;;;5.40;99.90;;;6.35;81.65;99642.41;5031966;28;20189;-71
2021/03/13 04:40:57;;;;;;;6.72;1.52;;;5.30;99.90;;;6.38;81.97;99643.19;5031653;28;20263;-71
2021/03/13 04:43:26;;;;;;;5.80;1.38;;;5.40;99.90;;;6.40;82.28;99641.38;5031571;28;20548;-71
2021/03/13 04:45:57;;;;;;;4.60;1.45;;;5.40;99.90;;;6.46;82.28;99644.59;5031876;28;20216;-71
2021/03/13 04:48:26;;;;;;;5.05;1.48;;;5.50;99.90;;;6.49;81.97;99638.41;5029177;28;20211;-71
2021/03/13 04:50:56;;;;;;;4.95;1.30;;;5.60;99.90;;;6.52;82.04;99630.50;5030602;28;20734;-71
2021/03/13 04:53:23;;;;;;;3.45;1.30;;;5.60;99.90;;;6.52;81.94;99623.56;5029703;28;20199;-72
2021/03/13 04:55:49;;;;;;;3.97;1.35;;;5.60;99.90;;;6.53;82.00;99633.03;5018658;28;20194;-71
2021/03/13 04:58:16;;;;;;;5.57;1.50;;;5.70;99.90;;;6.61;81.58;99627.56;5022139;28;20185;-71
2021/03/13 05:00:42;;;;;;;5.55;1.40;;;5.70;99.90;;;6.58;81.14;99625.09;5030882;28;20189;-71
2021/03/13 05:03:08;;;;;;;4.75;1.35;;;5.70;99.90;;;6.58;81.05;99619.88;5026034;28;20266;-72
2021/03/13 05:05:35;;;;;;;4.72;1.52;;;5.70;99.90;;;6.55;81.49;99615.63;5040026;28;20220;-72
2021/03/13 05:08:02;;;;;;;4.53;1.30;;;5.70;99.90;;;6.55;81.35;99622.59;5021146;28;20194;-72
2021/03/13 05:10:29;;;;;;;6.53;1.67;;;5.60;99.90;;;6.57;81.71;99624.22;5026747;28;20220;-71
2021/03/13 05:12:56;;;;;;;8.63;1.60;;;5.70;99.90;;;6.58;81.44;99620.72;5012353;28;20241;-71
2021/03/13 05:15:23;;;;;;;4.00;1.20;;;5.60;99.90;;;6.54;81.49;99606.16;5012346;28;20209;-71
2021/03/13 05:17:50;;;;;;;5.20;1.40;;;5.60;99.90;;;6.56;81.28;99606.09;5028193;28;20194;-71
2021/03/13 05:20:17;;;;;;;4.57;1.40;;;5.60;99.90;;;6.60;81.42;99603.31;5028829;28;20288;-71
2021/03/13 05:22:47;;;;;;;4.15;1.35;;;5.70;99.90;;;6.59;81.29;99605.97;5024813;28;20210;-71
2021/03/13 05:25:15;;;;;;;5.68;1.48;;;5.60;99.90;;;6.57;81.10;99608.63;5029458;28;20251;-70
2021/03/13 05:27:41;;;;;;;5.47;1.45;;;5.60;99.90;;;6.57;81.37;99605.19;5024763;28;20263;-71
2021/03/13 05:30:10;;;;;;;6.88;1.60;;;5.60;99.90;;;6.58;81.44;99601.69;5023412;28;20193;-71
2021/03/13 05:32:37;;;;;;;4.13;1.38;;;5.60;99.90;;;6.56;81.38;99601.75;5028804;28;20217;-71
2021/03/13 05:35:06;;;;;;;6.03;1.35;;;5.60;99.90;;;6.55;81.14;99600.03;5017870;28;20209;-70
2021/03/13 05:37:32;;;;;;;6.32;1.50;;;5.60;99.90;;;6.50;81.14;99589.00;5022842;28;20193;-72
2021/03/13 05:39:59;;;;;;;4.63;1.45;;;5.60;99.90;;;6.48;81.51;99603.78;5030751;28;20186;-71
2021/03/13 05:42:27;;;;;;;7.22;1.73;;;5.50;99.90;;;6.48;81.50;99597.75;5030610;28;20217;-73
2021/03/13 05:44:55;;;;;;;8.55;1.60;;;5.60;99.90;;;6.52;81.42;99589.78;5011968;28;20187;-71
2021/03/13 05:47:22;;;;;;;5.65;1.77;;;5.60;99.90;;;6.59;81.39;99590.38;5015894;28;20198;-72
2021/03/13 05:49:58;;;;;;;6.10;1.38;;;5.60;99.90;;;6.63;81.18;99585.00;5023377;28;20200;-72
2021/03/13 05:52:32;;;;;;;8.18;1.80;;;5.70;99.90;;;6.66;81.39;99592.69;5028589;28;20228;-71
2021/03/13 05:54:59;;;;;;;6.00;1.60;;;5.70;99.90;;;6.70;81.23;99583.84;5016806;28;20216;-73
2021/03/13 05:57:26;;;;;;;5.20;1.60;;;5.70;99.90;;;6.78;81.10;99576.56;5029369;28;20272;-71
2021/03/13 05:59:54;;;;;;;4.10;1.45;;;5.90;99.90;;;6.84;80.83;99571.13;5024811;28;20192;-72
2021/03/13 06:02:21;;;;;;;5.90;1.60;;;5.90;99.90;;;6.86;80.61;99569.34;5023605;28;20205;-73
2021/03/13 06:04:49;;;;;;;4.22;1.50;;;6.00;99.90;;;6.90;80.76;99572.66;5015884;28;20212;-71
2021/03/13 06:07:20;;;;;;;7.03;1.55;;;6.00;99.90;;;6.94;80.68;99574.19;5028714;28;20215;-71
2021/03/13 06:09:49;;;;;;;4.95;1.63;;;6.10;99.90;;;6.97;80.76;99566.25;5020554;28;20192;-72
2021/03/13 06:12:16;;;;;;;3.97;1.33;;;6.10;99.90;;;6.99;80.76;99565.31;5029697;28;20221;-72
2021/03/13 06:14:46;;;;;;;4.88;1.85;;;6.20;99.90;;;7.06;80.80;99560.69;5022243;28;20304;-72
2021/03/13 06:17:13;;;;;;;6.47;1.88;;;6.20;99.90;;;7.08;80.48;99553.66;5027407;28;20209;-71
2021/03/13 06:19:51;;;;;;;5.93;1.70;;;6.30;99.90;;;7.09;80.38;99539.75;5009909;28;20750;-72
2021/03/13 06:22:39;;;;;;;4.97;1.73;;;6.30;99.90;;;7.10;79.85;99537.06;5009925;28;20232;-71
2021/03/13 06:25:24;;;;;;;6.70;1.88;;;6.30;99.90;;;7.11;79.73;99528.38;5028330;28;20209;-73
2021/03/13 06:28:06;;;;;;;6.15;1.90;;;6.30;99.90;;;7.14;79.67;99533.44;5031086;28;20212;-71
2021/03/13 06:30:36;;;;;;;6.18;1.80;;;6.30;99.90;;;7.22;79.54;99541.75;5019419;28;20214;-72
2021/03/13 06:33:27;;;;;;;6.05;1.80;;;6.40;99.90;;;7.25;79.66;99530.41;5038627;28;20220;-72
2021/03/13 06:35:55;;;;;;;4.63;1.50;;;6.40;99.90;;;7.31;79.77;99530.97;5020702;28;20220;-72
2021/03/13 06:38:24;;;;;;;6.97;1.90;;;6.50;99.90;;;7.35;79.00;99529.91;5022695;28;20228;-72
2021/03/13 06:40:55;;;;;;;5.80;1.50;;;6.50;99.90;;;7.43;79.15;99524.38;5037737;28;20652;-70
2021/03/13 06:43:27;;;;;;;5.80;2.10;;;6.60;99.90;;;7.45;78.71;99515.56;5019240;28;20200;-70
2021/03/13 06:46:03;;;;;;;7.63;2.00;;;6.60;99.90;;;7.45;78.71;99523.38;5034668;28;20201;-72
2021/03/13 06:48:31;;;;;;;4.85;1.65;;;6.70;99.90;;;7.47;78.68;99518.97;5022764;28;20201;-71
2021/03/13 06:51:29;;;;;;;5.10;1.90;;;6.70;99.90;;;7.53;78.35;99515.25;5036079;28;20318;-72
2021/03/13 06:54:12;;;;;;;9.15;2.05;;;6.80;99.90;;;7.54;78.25;99520.38;5036332;28;20202;-72
2021/03/13 06:56:42;;;;;;;6.97;2.15;;;6.80;99.90;;;7.58;77.98;99519.31;5023614;28;20591;-71
2021/03/13 06:59:24;;;;;;;7.93;1.80;;;6.80;99.90;;;7.61;78.10;99518.34;5017608;28;20247;-71
2021/03/13 07:02:06;;;;;;;7.55;1.75;;;6.90;99.90;;;7.61;77.82;99511.38;5029556;28;20221;-71
2021/03/13 07:04:38;;;;;;;5.25;2.00;;;6.90;99.90;;;7.62;77.51;99504.41;5027345;28;20212;-73
2021/03/13 07:07:05;;;;;;;6.68;1.90;;;6.90;99.90;;;7.65;77.03;99509.50;5025748;28;20259;-72
2021/03/13 07:09:51;;;;;;;7.38;1.80;;;6.90;99.90;;;7.68;77.15;99505.88;5026518;28;20194;-71
2021/03/13 07:12:34;;;;;;;6.63;1.85;;;7.00;99.90;;;7.73;77.37;99501.31;5027742;28;20217;-72
2021/03/13 07:15:17;;;;;;;7.35;1.77;;;7.00;99.90;;;7.79;77.20;99506.25;5022651;28;20224;-73
2021/03/13 07:17:49;;;;;;;7.03;2.10;;;7.10;99.90;;;7.80;77.06;99506.19;5022679;28;20197;-71
2021/03/13 07:20:18;;;;;;;5.22;1.45;;;7.10;99.90;;;7.80;77.30;99492.31;5028499;28;20193;-69
2021/03/13 07:22:50;;;;;;;4.65;1.48;;;7.10;99.90;;;7.80;77.21;99497.53;5028124;28;20715;-72
2021/03/13 07:25:20;;;;;;;5.95;1.88;;;7.10;99.90;;;7.78;77.20;99495.00;5022896;28;20251;-69
2021/03/13 07:27:52;;;;;;;5.28;1.52;;;7.10;99.90;;;7.75;77.37;99496.91;5011429;28;20225;-71
2021/03/13 07:30:20;;;;;;;5.38;1.70;;;7.00;99.90;;;7.74;77.75;99492.63;5020121;28;20197;-72
2021/03/13 07:32:51;;;;;;;5.80;1.60;;;7.00;99.90;;;7.72;77.72;99491.84;5022454;28;20682;-71
2021/03/13 07:35:22;;;;;;;5.35;1.70;;;6.90;99.90;;;7.71;78.29;99482.31;5029786;28;20825;-71
2021/03/13 07:37:55;;;;;;;6.80;1.85;;;6.90;99.90;;;7.68;78.25;99485.91;5029250;28;20217;-72
2021/03/13 07:40:23;;;;;;;6.93;1.80;;;6.90;99.90;;;7.68;78.66;99484.13;5019231;28;20718;-71
2021/03/13 07:42:50;;;;;;;6.38;1.90;;;6.90;99.90;;;7.69;79.28;99487.59;5020047;28;20662;-71
2021/03/13 07:45:19;;;;;;;6.90;1.88;;;6.90;99.90;;;7.71;79.57;99477.97;5025236;28;20751;-71
2021/03/13 07:47:45;;;;;;;8.30;1.85;;;6.90;99.90;;;7.72;79.53;99481.41;5019301;28;20193;-72
2021/03/13 07:50:17;;;;;;;5.63;1.98;;;6.90;99.90;;;7.71;79.54;99477.09;5024198;28;20201;-72
2021/03/13 07:52:49;;;;;;;6.70;1.88;;;6.90;99.90;;;7.67;79.98;99478.19;5042112;28;20229;-71
2021/03/13 07:55:18;;;;;;;6.43;2.05;;;6.80;99.90;;;7.59;80.20;99474.16;5020829;28;20192;-71
2021/03/13 07:57:46;;;;;;;6.68;2.05;;;6.70;99.90;;;7.50;80.70;99473.75;5023969;28;20194;-71
2021/03/13 08:00:14;;;;;;;7.43;2.10;;;6.60;99.90;;;7.44;81.53;99461.84;5024056;28;20209;-72
2021/03/13 08:02:45;;;;;;;9.73;2.30;;;6.50;99.90;;;7.44;82.08;99453.19;5024465;28;20210;-71
2021/03/13 08:05:17;;;;;;;7.38;2.05;;;6.60;99.90;;;7.42;82.33;99455.00;5029052;28;20196;-71
2021/03/13 08:08:00;;;;;;;9.25;3.15;;;6.50;99.90;;;7.45;82.61;99447.09;5028405;28;20206;-71
2021/03/13 08:10:52;;;;;;;8.20;2.13;;;6.60;99.90;;;7.53;82.74;99439.78;5029134;28;20757;-71
2021/03/13 08:13:57;;;;;;;7.35;2.33;;;6.60;99.90;;;7.60;82.93;99434.19;5033241;28;20189;-70
2021/03/13 08:16:38;;;;;;;7.38;1.90;;;6.60;99.90;;;7.63;82.77;99434.03;5021599;28;20228;-69
2021/03/13 08:19:39;;;;;;;7.18;2.08;;;6.70;99.90;;;7.62;82.70;99424.56;5018426;28;20244;-74
2021/03/13 08:22:22;;;;;;;7.10;2.25;;;6.70;99.90;;;7.54;83.38;99429.28;5018376;28;20243;-71
2021/03/13 08:24:51;;;;;;;7.30;2.15;;;6.60;99.90;;;7.47;83.50;99411.41;5018359;28;20272;-72
2021/03/13 08:27:38;;;;;;;9.10;2.38;;;6.60;99.90;;;7.37;83.83;99421.41;5012951;28;20225;-72
2021/03/13 08:30:20;;;;;;;5.78;2.00;;;6.50;99.90;;;7.27;84.61;99399.31;5012221;28;20201;-73
2021/03/13 08:33:06;;;;;;;8.23;2.00;;;6.50;99.90;;;7.28;85.29;99384.56;5016752;28;20228;-71
2021/03/13 08:35:43;;;;;;;8.90;2.50;;;6.50;99.90;;;7.24;85.52;99381.25;5012117;28;20232;-70
2021/03/13 08:38:12;;;;;;;6.20;2.10;;;6.40;99.90;;;7.23;85.56;99382.16;5015484;28;20197;-72
2021/03/13 08:40:46;;;;;;;7.05;2.20;;;6.40;99.90;;;7.22;86.39;99370.06;5019916;28;20249;-73
2021/03/13 08:43:38;;;;;;;6.57;2.20;;;6.50;99.90;;;7.27;86.66;99362.91;5015864;28;20206;-72
2021/03/13 08:46:26;;;;;;;7.90;2.53;;;6.60;99.90;;;7.24;86.76;99355.25;5009742;28;20230;-71
2021/03/13 08:48:59;;;;;;;8.52;2.22;;;6.50;99.90;;;7.18;86.90;99352.09;5038178;28;20197;-72
2021/03/13 08:51:26;;;;;;;8.77;2.72;;;6.40;99.90;;;7.17;87.25;99338.22;5015070;28;20283;-69
2021/03/13 08:53:54;;;;;;;8.90;2.30;;;6.40;99.90;;;7.22;87.64;99338.88;5015582;28;20190;-72
2021/03/13 08:56:41;;;;;;;9.65;2.70;;;6.50;99.90;;;7.26;87.84;99332.63;5010936;28;20225;-70
2021/03/13 08:59:14;;;;;;;8.27;2.78;;;6.50;99.90;;;7.28;87.84;99328.16;5004508;28;20279;-71
2021/03/13 09:01:43;;;;;;;7.30;2.25;;;6.50;99.90;;;7.29;88.06;99323.81;5014161;28;20214;-70
2021/03/13 09:04:10;;;;;;;7.50;2.45;;;6.50;99.90;;;7.30;88.10;99310.72;5016896;28;20650;-72
2021/03/13 09:06:40;;;;;;;6.50;2.05;;;6.60;99.90;;;7.30;88.08;99310.72;5012620;28;20193;-71
2021/03/13 09:09:16;;;;;;;5.70;2.20;;;6.60;99.90;;;7.26;87.93;99291.00;5019838;28;20198;-72
2021/03/13 09:11:43;;;;;;;7.55;2.63;;;6.60;99.90;;;7.28;88.63;99280.50;5015511;28;20259;-73
2021/03/13 09:14:13;;;;;;;9.82;2.50;;;6.60;99.90;;;7.33;88.82;99279.34;5017728;28;20244;-73
2021/03/13 09:16:42;;;;;;;7.20;2.50;;;6.60;99.90;;;7.28;88.79;99273.53;5009609;28;20209;-69
2021/03/13 09:19:14;;;;;;;8.23;2.50;;;6.50;99.90;;;7.25;88.65;99265.88;5017136;28;20280;-71
2021/03/13 09:21:50;;;;;;;11.40;2.67;;;6.50;99.90;;;7.22;89.15;99260.81;5012465;28;20246;-72
2021/03/13 09:24:20;;;;;;;7.80;2.70;;;6.50;99.90;;;7.20;89.38;99254.84;5012823;28;20216;-72
2021/03/13 09:26:53;;;;;;;7.05;2.28;;;6.50;99.90;;;7.20;89.88;99254.84;5007458;28;21068;-73
2021/03/13 09:29:31;;;;;;;8.45;2.80;;;6.50;99.90;;;7.20;89.96;99241.84;5015171;28;20209;-73
2021/03/13 09:32:01;;;;;;;7.90;2.42;;;6.50;99.90;;;7.23;90.40;99217.47;5014390;28;20751;-73
2021/03/13 09:34:29;;;;;;;9.80;2.80;;;6.50;99.90;;;7.25;90.46;99219.06;5013686;28;20632;-72
2021/03/13 09:36:57;;;;;;;7.90;2.50;;;6.50;99.90;;;7.27;90.79;99208.56;5007276;28;20322;-71
2021/03/13 09:39:27;;;;;;;9.52;2.42;;;6.50;99.90;;;7.26;90.80;99194.75;5016946;28;20280;-75
2021/03/13 09:42:16;;;;;;;6.65;2.30;;;6.50;99.90;;;7.28;91.02;99199.88;5017847;28;20891;-72
2021/03/13 09:44:49;;;;;;;9.57;2.50;;;6.60;99.90;;;7.31;91.07;99179.75;5012315;28;20259;-71
2021/03/13 09:47:21;;;;;;;8.93;2.72;;;6.60;99.90;;;7.36;91.08;99169.97;5006844;28;20300;-72
2021/03/13 09:49:52;;;;;;;8.27;2.50;;;6.60;99.90;;;7.38;91.25;99165.50;5014236;28;20664;-70
2021/03/13 09:52:26;;;;;;;6.88;2.38;;;6.60;99.90;;;7.43;91.22;99160.91;5012772;28;20349;-75
2021/03/13 09:55:02;;;;;;;7.07;1.98;;;6.70;99.90;;;7.44;91.39;99152.19;5016461;28;20196;-71
2021/03/13 09:57:29;;;;;;;6.57;2.40;;;6.80;99.90;;;7.49;91.35;99157.16;5008244;28;20225;-70
2021/03/13 09:59:57;;;;;;;8.05;2.42;;;6.80;99.90;;;7.52;91.39;99163.06;5014263;28;20216;-73
2021/03/13 10:02:24;;;;;;;6.72;2.17;;;6.80;99.90;;;7.55;91.17;99149.88;5012030;28;20224;-71
2021/03/13 10:04:52;;;;;;;6.50;2.00;;;6.80;99.90;;;7.58;91.33;99152.31;5013274;28;20212;-71
2021/03/13 10:07:19;;;;;;;6.30;2.10;;;6.90;99.90;;;7.58;91.21;99147.13;5026713;28;20248;-72
2021/03/13 10:09:57;;;;;;;9.27;2.30;;;6.90;99.90;;;7.62;91.57;99145.19;5014288;28;20209;-72
2021/03/13 10:12:30;;;;;;;7.60;2.35;;;6.90;99.90;;;7.66;91.38;99128.53;5013657;28;20275;-70
2021/03/13 10:15:10;;;;;;;6.88;2.55;;;7.00;99.90;;;7.72;91.27;99107.38;5014919;28;20285;-72
2021/03/13 10:17:52;;;;;;;7.07;2.15;;;7.00;99.90;;;7.77;91.35;99104.53;5004892;28;20189;-71
2021/03/13 10:20:21;;;;;;;6.75;1.80;;;7.00;99.90;;;7.87;91.25;99103.13;5013342;28;20284;-72
2021/03/13 10:22:47;;;;;;;5.70;1.90;;;7.20;99.90;;;7.98;91.30;99100.78;5009405;28;20221;-71
2021/03/13 10:25:14;;;;;;;7.38;1.80;;;7.20;99.90;;;8.05;91.25;99082.16;5017422;28;20201;-73
2021/03/13 10:27:44;;;;;;;6.07;2.10;;;7.30;99.90;;;8.11;90.78;99096.59;5008074;28;20194;-72
2021/03/13 10:30:12;;;;;;;5.88;1.95;;;7.30;99.90;;;8.17;90.49;99075.44;5019833;28;20255;-73
2021/03/13 10:32:46;;;;;;;5.60;1.73;;;7.40;99.90;;;8.20;90.03;99080.47;5010863;28;20714;-72
2021/03/13 10:35:21;;;;;;;4.80;1.60;;;7.50;99.90;;;8.23;90.01;99075.97;5013312;28;20259;-70
2021/03/13 10:37:50;;;;;;;7.20;1.85;;;7.50;99.90;;;8.25;89.80;99073.28;5006990;28;21401;-73
2021/03/13 10:40:41;;;;;;;4.43;1.50;;;7.60;99.90;;;8.33;89.49;99071.09;5018605;28;20221;-73
2021/03/13 10:43:37;;;;;;;4.32;1.58;;;7.70;99.90;;;8.40;89.50;99049.84;5014216;28;20202;-74
2021/03/13 10:46:17;;;;;;;4.38;1.42;;;7.80;99.90;;;8.50;89.46;99048.41;5010532;28;20205;-73
2021/03/13 10:49:05;;;;;;;4.85;1.60;;;7.90;99.90;;;8.55;89.27;99050.72;5013975;28;20255;-72
2021/03/13 10:51:40;;;;;;;3.92;1.20;;;8.00;99.90;;;8.54;88.89;99036.03;5011754;28;20314;-74
2021/03/13 10:54:20;;;;;;;4.38;1.48;;;8.00;99.90;;;8.55;88.50;99024.66;5012701;28;20277;-76